Time;durP1;ratioP1;P1;durP2;ratioP2;P2;SDS_P1;SDS_P2;PMS_P1;PMS_P2;Temp;Humidity;BMP_temperature;BMP_pressure;BME280_temperature;BME280_humidity;BME280_pressure;Samples;Min_cycle;Max_cycle;Signal;HPM_P1;HPM_P2
2020/12/10 00:02:11;;;;;;;21.20;6.55;;;;;;;8.11;72.30;99150.56;4452379;32;20076;-74
2020/12/10 00:04:37;;;;;;;16.45;6.20;;;;;;;8.12;72.96;99152.09;4451527;32;20189;-74
2020/12/10 00:07:03;;;;;;;24.02;6.20;;;;;;;8.13;72.79;99146.03;4450734;32;21180;-74
2020/12/10 00:09:30;;;;;;;14.90;6.03;;;;;;;8.13;72.29;99136.84;4452204;32;20085;-74
2020/12/10 00:11:56;;;;;;;14.75;5.60;;;;;;;8.14;73.12;99144.78;4451746;32;20081;-74
2020/12/10 00:14:21;;;;;;;17.40;5.87;;;;;;;8.17;72.85;99154.31;4449597;32;20744;-73
2020/12/10 00:16:48;;;;;;;21.75;5.75;;;;;;;8.11;71.31;99144.94;4451818;32;20155;-74
2020/12/10 00:19:14;;;;;;;14.73;4.78;;;;;;;8.09;71.85;99139.00;4451564;32;20076;-75
2020/12/10 00:21:39;;;;;;;23.62;6.37;;;;;;;8.09;71.92;99136.22;4451553;32;20406;-73
2020/12/10 00:24:05;;;;;;;12.75;5.22;;;;;;;8.11;72.70;99133.75;4449874;32;20104;-73
2020/12/10 00:26:31;;;;;;;11.63;4.50;;;;;;;8.11;72.24;99128.91;4451805;32;20347;-74
2020/12/10 00:28:56;;;;;;;17.95;4.87;;;;;;;8.09;72.08;99120.19;4452016;32;20060;-74
2020/12/10 00:31:22;;;;;;;15.98;5.65;;;;;;;8.15;72.70;99121.16;4440680;32;20106;-74
2020/12/10 00:33:48;;;;;;;15.27;5.18;;;;;;;8.11;71.98;99120.50;4436012;32;20068;-74
2020/12/10 00:36:14;;;;;;;19.27;5.90;;;;;;;8.10;72.34;99127.34;4449237;32;20049;-75
2020/12/10 00:38:40;;;;;;;16.55;5.22;;;;;;;7.95;72.01;99117.19;4450904;32;20160;-75
2020/12/10 00:41:05;;;;;;;22.33;5.30;;;;;;;7.95;71.89;99120.75;4452268;32;20099;-74
2020/12/10 00:43:31;;;;;;;16.25;5.47;;;;;;;7.96;72.04;99110.34;4451040;32;20418;-74
2020/12/10 00:46:05;;;;;;;19.55;5.75;;;;;;;7.94;71.97;99116.37;4448821;32;20082;-74
2020/12/10 00:48:32;;;;;;;12.93;4.65;;;;;;;8.05;72.45;99105.56;4453868;32;20056;-75
2020/12/10 00:50:59;;;;;;;10.57;5.07;;;;;;;8.12;72.30;99105.28;4452166;32;20065;-73
2020/12/10 00:53:25;;;;;;;16.42;5.70;;;;;;;8.14;71.78;99099.22;4447644;32;20060;-75
2020/12/10 00:55:54;;;;;;;25.20;6.82;;;;;;;8.11;71.87;99100.88;4454524;32;20041;-75
2020/12/10 00:58:20;;;;;;;18.50;5.60;;;;;;;8.04;71.12;99098.38;4453959;32;20076;-74
2020/12/10 01:00:46;;;;;;;17.20;6.03;;;;;;;7.78;71.36;99096.25;4450078;32;20063;-74
2020/12/10 01:03:11;;;;;;;17.40;5.45;;;;;;;7.83;72.39;99098.44;4450440;32;21428;-75
2020/12/10 01:05:37;;;;;;;17.48;5.18;;;;;;;7.85;72.34;99095.94;4449882;32;20448;-75
2020/12/10 01:08:02;;;;;;;22.75;5.85;;;;;;;7.85;72.45;99084.75;4449877;32;20063;-75
2020/12/10 01:10:28;;;;;;;24.58;5.97;;;;;;;7.90;72.08;99089.75;4453461;32;20025;-75
2020/12/10 01:12:54;;;;;;;20.05;5.80;;;;;;;8.01;72.10;99076.88;4450846;32;20081;-75
2020/12/10 01:15:19;;;;;;;13.18;5.30;;;;;;;7.92;71.60;99070.50;4451945;32;20406;-73
2020/12/10 01:17:45;;;;;;;20.85;5.28;;;;;;;7.96;72.00;99074.72;4450776;32;20072;-74
2020/12/10 01:20:11;;;;;;;15.95;5.78;;;;;;;8.00;72.05;99071.75;4447808;32;20146;-73
2020/12/10 01:22:37;;;;;;;19.73;5.35;;;;;;;8.00;71.41;99071.75;4451221;32;20415;-74
2020/12/10 01:25:05;;;;;;;13.50;5.25;;;;;;;8.05;71.21;99071.16;4452569;32;20180;-75
2020/12/10 01:27:31;;;;;;;19.90;5.65;;;;;;;8.04;71.71;99072.41;4436944;32;20033;-74
2020/12/10 01:29:57;;;;;;;15.52;5.25;;;;;;;7.87;71.30;99071.87;4451012;32;20081;-74
2020/12/10 01:32:23;;;;;;;14.07;4.95;;;;;;;7.86;71.42;99069.53;4454617;32;20115;-75
2020/12/10 01:34:50;;;;;;;16.20;5.72;;;;;;;7.93;71.40;99072.84;4452722;32;20092;-75
2020/12/10 01:37:16;;;;;;;16.10;5.40;;;;;;;8.00;71.21;99071.75;4451901;32;20029;-74
2020/12/10 01:39:41;;;;;;;18.10;5.97;;;;;;;7.96;71.45;99071.91;4452498;32;20425;-74
2020/12/10 01:42:07;;;;;;;13.07;4.80;;;;;;;7.93;70.98;99072.84;4449544;32;20105;-73
2020/12/10 01:44:33;;;;;;;21.98;4.25;;;;;;;7.96;71.54;99071.13;4452887;32;20068;-75
2020/12/10 01:46:58;;;;;;;15.00;4.47;;;;;;;7.87;71.19;99074.69;4452553;32;20420;-75
2020/12/10 01:49:24;;;;;;;15.98;4.57;;;;;;;7.92;71.17;99078.91;4450427;32;20065;-74
2020/12/10 01:51:50;;;;;;;17.87;5.28;;;;;;;7.91;71.11;99088.50;4448689;32;20395;-75
2020/12/10 01:54:15;;;;;;;12.37;4.10;;;;;;;7.95;71.07;99080.78;4444483;32;20417;-74
2020/12/10 01:56:41;;;;;;;13.52;4.32;;;;;;;8.00;71.29;99080.94;4446828;32;20461;-74
2020/12/10 01:59:07;;;;;;;18.12;5.12;;;;;;;8.06;71.27;99075.50;4446110;32;20048;-75
2020/12/10 02:01:34;;;;;;;17.67;5.00;;;;;;;7.97;70.35;99078.28;4448425;32;20501;-76
2020/12/10 02:04:00;;;;;;;17.42;5.65;;;;;;;7.93;70.42;99074.84;4449302;32;20140;-74
2020/12/10 02:06:27;;;;;;;19.12;4.75;;;;;;;7.81;70.67;99084.13;4434012;32;20401;-73
2020/12/10 02:08:52;;;;;;;14.85;5.20;;;;;;;7.78;71.07;99073.84;4447859;32;20171;-74
2020/12/10 02:11:18;;;;;;;14.73;5.72;;;;;;;7.65;71.06;99081.56;4453277;32;20048;-74
2020/12/10 02:13:44;;;;;;;19.62;5.05;;;;;;;7.64;71.18;99072.38;4445963;32;20307;-74
2020/12/10 02:16:09;;;;;;;22.65;4.93;;;;;;;7.65;71.35;99073.16;4451342;32;20403;-74
2020/12/10 02:18:36;;;;;;;16.85;4.55;;;;;;;7.59;71.04;99069.41;4451350;32;20085;-73
2020/12/10 02:21:03;;;;;;;15.63;4.80;;;;;;;7.48;71.12;99077.41;4448328;32;20110;-75
2020/12/10 02:23:28;;;;;;;13.82;4.68;;;;;;;7.59;70.94;99077.78;4449567;32;20029;-74
2020/12/10 02:25:54;;;;;;;13.70;4.85;;;;;;;7.58;70.87;99077.00;4454324;32;20083;-73
2020/12/10 02:28:20;;;;;;;17.20;5.05;;;;;;;7.68;71.49;99080.63;4450465;32;20063;-75
2020/12/10 02:30:47;;;;;;;16.48;4.78;;;;;;;7.68;71.30;99075.03;4449022;32;20497;-73
2020/12/10 02:33:13;;;;;;;15.30;4.25;;;;;;;7.78;71.26;99069.03;4449136;32;20053;-74
2020/12/10 02:35:41;;;;;;;17.02;4.55;;;;;;;7.76;70.51;99079.91;4448841;32;20096;-74
2020/12/10 02:38:10;;;;;;;16.20;4.60;;;;;;;7.71;70.65;99074.88;4451365;32;20037;-74
2020/12/10 02:40:39;;;;;;;19.77;4.45;;;;;;;7.78;70.86;99066.22;4451263;32;20033;-74
2020/12/10 02:43:05;;;;;;;16.62;4.65;;;;;;;7.61;71.12;99072.53;4449840;32;20033;-75
2020/12/10 02:45:31;;;;;;;20.98;5.53;;;;;;;7.62;70.79;99077.66;4448123;32;20025;-75
2020/12/10 02:47:57;;;;;;;17.77;5.35;;;;;;;7.71;70.27;99071.31;4449320;32;20470;-75
2020/12/10 02:50:23;;;;;;;12.93;4.20;;;;;;;7.78;70.62;99088.63;4451316;32;20088;-73
2020/12/10 02:52:49;;;;;;;11.50;3.75;;;;;;;7.79;70.25;99084.56;4450952;32;20122;-73
2020/12/10 02:55:15;;;;;;;21.08;4.85;;;;;;;7.71;69.90;99079.72;4449343;32;20087;-73
2020/12/10 02:57:41;;;;;;;15.50;4.32;;;;;;;7.85;70.11;99084.75;4448017;32;20430;-73
2020/12/10 03:00:09;;;;;;;23.95;5.00;;;;;;;7.87;69.94;99077.47;4450403;32;20072;-74
2020/12/10 03:02:34;;;;;;;20.45;5.93;;;;;;;7.99;69.76;99085.00;4450372;32;20096;-74
2020/12/10 03:05:00;;;;;;;16.08;3.80;;;;;;;7.91;70.07;99078.09;4451491;32;20032;-74
2020/12/10 03:07:26;;;;;;;14.40;3.67;;;;;;;7.99;69.50;99078.59;4448874;32;20024;-73
2020/12/10 03:09:51;;;;;;;15.73;3.95;;;;;;;8.10;69.70;99078.94;4449806;32;20454;-74
2020/12/10 03:12:17;;;;;;;9.27;4.22;;;;;;;8.18;69.65;99074.62;4450132;32;20085;-74
2020/12/10 03:14:43;;;;;;;17.75;4.65;;;;;;;8.24;69.79;99081.22;4448214;32;20065;-75
2020/12/10 03:17:09;;;;;;;12.90;4.07;;;;;;;8.22;68.94;99080.09;4448898;32;20140;-74
2020/12/10 03:19:36;;;;;;;15.50;4.43;;;;;;;8.33;68.77;99083.25;4449786;32;20148;-74
2020/12/10 03:22:03;;;;;;;14.87;4.10;;;;;;;8.43;68.53;99087.66;4446567;32;20077;-75
2020/12/10 03:24:28;;;;;;;10.93;4.40;;;;;;;8.45;68.75;99079.53;4447745;32;20373;-74
2020/12/10 03:26:54;;;;;;;11.73;3.50;;;;;;;8.51;68.38;99084.06;4451159;32;20073;-74
2020/12/10 03:29:20;;;;;;;22.15;4.55;;;;;;;8.48;67.84;99073.00;4451663;32;20044;-74
2020/12/10 03:31:45;;;;;;;18.42;4.07;;;;;;;8.57;67.99;99079.41;4451494;32;20041;-74
2020/12/10 03:34:11;;;;;;;16.67;3.97;;;;;;;8.56;67.55;99075.03;4452187;32;20465;-74
2020/12/10 03:36:55;;;;;;;16.73;4.28;;;;;;;8.52;67.04;99068.03;4455176;32;20037;-73
2020/12/10 03:39:22;;;;;;;13.88;3.58;;;;;;;8.52;67.82;99068.03;4452183;32;20076;-74
2020/12/10 03:41:49;;;;;;;16.80;4.78;;;;;;;8.42;68.23;99067.25;4454891;32;20105;-73
2020/12/10 03:44:15;;;;;;;17.87;4.40;;;;;;;8.41;68.14;99073.31;4454312;32;20055;-73
2020/12/10 03:46:40;;;;;;;14.02;4.87;;;;;;;8.39;68.54;99070.19;4448596;32;20132;-74
2020/12/10 03:49:07;;;;;;;14.02;5.30;;;;;;;8.37;68.61;99067.84;4440772;32;20073;-73
2020/12/10 03:51:33;;;;;;;20.83;6.30;;;;;;;8.37;68.69;99064.28;4452102;32;20097;-73
2020/12/10 03:53:59;;;;;;;14.55;5.47;;;;;;;8.41;69.00;99067.69;4454387;32;20048;-74
2020/12/10 03:56:25;;;;;;;24.55;6.78;;;;;;;8.20;69.47;99058.13;4452814;32;20331;-74
2020/12/10 03:58:50;;;;;;;19.83;6.72;;;;;;;8.31;69.45;99057.72;4452126;32;20026;-74
2020/12/10 04:01:16;;;;;;;21.52;7.47;;;;;;;8.23;69.47;99059.25;4448623;32;20119;-74
2020/12/10 04:03:42;;;;;;;21.30;6.35;;;;;;;8.25;70.10;99062.38;4451047;32;20409;-73
2020/12/10 04:06:09;;;;;;;13.57;6.60;;;;;;;8.23;69.64;99054.44;4449537;32;20096;-74
2020/12/10 04:08:35;;;;;;;20.12;6.30;;;;;;;8.29;69.90;99061.00;4453922;32;20067;-74
2020/12/10 04:11:01;;;;;;;18.75;6.60;;;;;;;8.30;69.67;99065.34;4455076;32;20037;-73
2020/12/10 04:13:28;;;;;;;12.88;5.43;;;;;;;8.28;70.21;99056.59;4449989;32;20076;-73
2020/12/10 04:15:53;;;;;;;20.20;6.82;;;;;;;8.31;70.34;99064.09;4452657;32;20076;-75
2020/12/10 04:18:19;;;;;;;18.65;6.32;;;;;;;8.34;70.24;99065.19;4453478;32;20137;-74
2020/12/10 04:20:45;;;;;;;17.48;6.12;;;;;;;8.34;70.15;99063.16;4450388;32;20085;-74
2020/12/10 04:23:11;;;;;;;17.52;6.47;;;;;;;8.35;70.54;99075.94;4453546;32;20084;-74
2020/12/10 04:25:38;;;;;;;14.07;6.37;;;;;;;8.32;70.88;99070.47;4455189;32;20052;-74
2020/12/10 04:28:03;;;;;;;25.15;7.35;;;;;;;8.31;70.47;99055.69;4452434;32;20041;-74
2020/12/10 04:30:29;;;;;;;22.37;6.62;;;;;;;8.32;70.56;99064.88;4453598;32;20378;-73
2020/12/10 04:32:55;;;;;;;19.20;7.15;;;;;;;8.39;70.05;99058.97;4453189;32;20103;-74
2020/12/10 04:35:20;;;;;;;20.02;7.05;;;;;;;8.46;69.92;99061.47;4453729;32;20040;-74
2020/12/10 04:37:46;;;;;;;17.92;6.35;;;;;;;8.50;69.48;99060.06;4449051;32;20460;-74
2020/12/10 04:40:12;;;;;;;13.73;6.62;;;;;;;8.47;69.14;99061.00;4451978;32;20127;-76
2020/12/10 04:42:41;;;;;;;20.27;6.37;;;;;;;8.48;69.53;99061.78;4454529;32;20041;-74
2020/12/10 04:45:07;;;;;;;19.23;6.85;;;;;;;8.49;69.55;99066.94;4451598;32;20055;-75
2020/12/10 04:47:33;;;;;;;22.55;7.25;;;;;;;8.48;69.50;99065.38;4453895;32;20068;-73
2020/12/10 04:50:03;;;;;;;22.33;6.70;;;;;;;8.48;69.72;99071.00;4449307;32;20091;-74
2020/12/10 04:52:29;;;;;;;17.02;6.87;;;;;;;8.46;70.17;99070.66;4450544;32;20029;-73
2020/12/10 04:54:55;;;;;;;24.35;7.03;;;;;;;8.49;70.28;99082.97;4449433;32;20349;-73
2020/12/10 04:57:25;;;;;;;19.80;6.60;;;;;;;8.39;70.31;99081.38;4453115;32;20369;-74
2020/12/10 04:59:51;;;;;;;23.60;7.25;;;;;;;8.35;70.87;99080.78;4449022;32;20051;-75
2020/12/10 05:02:19;;;;;;;17.08;6.62;;;;;;;8.22;71.07;99080.88;4450837;32;20025;-74
2020/12/10 05:04:45;;;;;;;17.87;6.70;;;;;;;8.23;70.99;99093.66;4439125;32;20091;-74
2020/12/10 05:07:11;;;;;;;19.15;6.72;;;;;;;8.23;71.35;99084.47;4449713;32;20052;-74
2020/12/10 05:09:37;;;;;;;17.48;7.57;;;;;;;8.26;71.02;99086.34;4450393;32;20072;-73
2020/12/10 05:12:02;;;;;;;21.42;7.85;;;;;;;8.28;70.75;99084.63;4450146;32;20110;-74
2020/12/10 05:14:45;;;;;;;24.12;7.12;;;;;;;8.36;70.76;99077.50;4450795;32;20569;-75
2020/12/10 05:17:14;;;;;;;18.08;6.43;;;;;;;8.45;70.77;99077.53;4437113;32;20080;-76
2020/12/10 05:19:40;;;;;;;17.17;6.78;;;;;;;8.53;70.33;99084.38;4448995;32;20452;-73
2020/12/10 05:22:08;;;;;;;24.45;6.40;;;;;;;8.46;70.05;99061.47;4450937;32;20053;-74
2020/12/10 05:24:34;;;;;;;21.92;7.32;;;;;;;8.40;69.75;99075.31;4445761;32;20385;-76
2020/12/10 05:29:52;;;;;;;17.37;6.37;;;;;;;8.89;69.42;99081.63;3999138;31;15073191;-74
2020/12/10 05:32:42;;;;;;;16.60;7.05;;;;;;;8.89;69.42;99081.63;4454212;32;20195;-73
2020/12/10 05:35:24;;;;;;;15.32;7.28;;;;;;;8.48;69.78;99073.78;4454230;32;20148;-74
2020/12/10 05:37:53;;;;;;;17.40;6.53;;;;;;;8.39;70.14;99076.56;4455803;32;20064;-74
2020/12/10 05:40:20;;;;;;;19.00;7.03;;;;;;;8.33;71.43;99074.84;4453782;32;20084;-73
2020/12/10 05:42:49;;;;;;;15.70;6.43;;;;;;;8.30;71.58;99067.34;4456028;32;20443;-74
2020/12/10 05:45:18;;;;;;;23.55;7.43;;;;;;;8.23;71.66;99074.06;4456535;32;20034;-74
2020/12/10 05:50:25;;;;;;;21.67;7.43;;;;;;;8.38;71.51;99080.63;3958878;32;15728605;-74
2020/12/10 05:53:11;;;;;;;19.95;6.50;;;;;;;8.38;71.51;99080.63;4420254;32;20362;-75
2020/12/10 05:55:39;;;;;;;15.57;6.70;;;;;;;7.87;72.65;99077.47;4420994;32;20138;-76
2020/12/10 05:58:06;;;;;;;24.87;7.75;;;;;;;7.83;72.86;99073.25;4420229;32;20069;-74
2020/12/10 06:00:33;;;;;;;16.05;7.00;;;;;;;7.84;73.34;99060.81;4425761;32;20466;-74
2020/12/10 06:03:00;;;;;;;22.48;7.35;;;;;;;7.94;73.04;99059.59;4420400;32;20060;-75
2020/12/10 06:05:27;;;;;;;19.25;7.12;;;;;;;7.87;72.99;99062.69;4423010;32;20441;-73
2020/12/10 06:07:58;;;;;;;20.23;7.45;;;;;;;7.83;73.89;99068.41;4417388;32;20470;-73
2020/12/10 06:10:25;;;;;;;18.48;7.32;;;;;;;7.85;73.33;99073.56;4423405;32;20065;-74
2020/12/10 06:12:51;;;;;;;17.92;7.78;;;;;;;7.88;73.66;99078.22;4422762;32;20025;-74
2020/12/10 06:15:26;;;;;;;16.12;7.47;;;;;;;7.86;73.49;99078.69;4419323;32;20436;-72
2020/12/10 06:18:10;;;;;;;18.20;7.53;;;;;;;8.00;73.54;99085.75;4420618;32;20109;-74
2020/12/10 06:20:40;;;;;;;26.48;7.65;;;;;;;8.08;72.66;99082.19;4413630;32;20368;-73
2020/12/10 06:29:22;;;;;;;25.40;9.55;;;;;;;8.82;70.54;99106.38;3984759;32;15031667;-75
2020/12/10 06:37:28;;;;;;;20.52;7.30;;;;;;;8.89;70.68;99118.09;3988603;32;15025702;-75
2020/12/10 06:42:47;;;;;;;20.12;8.57;;;;;;;8.89;70.60;99109.66;3958482;32;15724844;-74
2020/12/10 06:50:40;;;;;;;21.15;7.50;;;;;;;8.87;70.70;99114.19;3998779;31;15016464;-74
2020/12/10 06:56:07;;;;;;;19.75;8.80;;;;;;;8.85;70.37;99125.88;3984684;32;15022684;-74
2020/12/10 07:04:37;;;;;;;16.05;6.25;;;;;;;8.65;70.32;99127.56;3986051;32;15024144;-73
2020/12/10 07:07:25;;;;;;;24.02;6.68;;;;;;;8.65;70.32;99127.56;4440285;32;20095;-74
2020/12/10 07:12:40;;;;;;;19.00;6.43;;;;;;;8.23;71.76;99132.91;3958836;32;15726594;-76
2020/12/10 07:15:11;;;;;;;14.35;5.85;;;;;;;8.16;71.83;99130.31;4436359;32;20076;-75
2020/12/10 07:17:37;;;;;;;18.55;6.70;;;;;;;8.17;71.75;99129.09;4420375;32;20095;-74
2020/12/10 07:20:04;;;;;;;16.05;6.47;;;;;;;8.11;71.84;99139.34;4438174;32;20030;-76
2020/12/10 07:22:31;;;;;;;21.00;6.85;;;;;;;8.15;72.14;99139.97;4423578;32;20073;-76
2020/12/10 07:25:02;;;;;;;20.45;6.20;;;;;;;8.25;71.88;99144.41;4436925;32;20162;-74
2020/12/10 07:27:29;;;;;;;17.83;6.22;;;;;;;8.32;71.58;99137.75;4435990;32;20160;-73
2020/12/10 07:29:55;;;;;;;18.70;7.28;;;;;;;8.37;71.49;99137.16;4436448;32;20069;-75
2020/12/10 07:32:22;;;;;;;22.98;6.35;;;;;;;8.36;71.41;99136.34;4436558;32;20401;-75
2020/12/10 07:34:54;;;;;;;16.98;6.28;;;;;;;8.36;71.30;99133.56;4429200;32;20072;-75
2020/12/10 07:37:31;;;;;;;21.50;7.85;;;;;;;8.38;71.35;99135.91;4435608;32;20093;-75
2020/12/10 07:40:08;;;;;;;15.35;7.18;;;;;;;8.35;71.46;99137.59;4432825;32;20063;-74
2020/12/10 07:42:34;;;;;;;22.00;7.57;;;;;;;8.37;71.38;99142.75;4428124;32;20095;-75
2020/12/10 07:45:10;;;;;;;22.70;7.03;;;;;;;8.40;71.59;99144.62;4433196;32;20072;-76
2020/12/10 07:47:36;;;;;;;25.33;8.27;;;;;;;8.45;71.14;99144.78;4427663;32;20034;-75
2020/12/10 07:50:08;;;;;;;23.48;7.87;;;;;;;8.46;71.34;99149.16;4433480;32;20453;-76
2020/12/10 07:52:43;;;;;;;23.55;8.43;;;;;;;8.44;71.10;99150.88;4417483;32;20073;-76
2020/12/10 07:55:16;;;;;;;21.95;8.35;;;;;;;8.44;71.79;99153.66;4418352;32;20094;-75
2020/12/10 07:57:49;;;;;;;22.37;8.55;;;;;;;8.42;71.96;99147.72;4416298;32;20081;-75
2020/12/10 08:00:27;;;;;;;18.30;7.20;;;;;;;8.47;72.07;99156.31;4419895;32;20132;-76
2020/12/10 08:06:01;;;;;;;11.98;5.62;;;;;;;8.92;69.98;99162.03;3981205;32;15026796;-76
2020/12/10 08:08:34;;;;;;;17.92;7.60;;;;;;;8.92;69.98;99162.03;4436923;32;20049;-76
2020/12/10 08:11:18;;;;;;;17.87;6.03;;;;;;;8.47;70.96;99167.53;4430626;32;20073;-76
2020/12/10 08:16:38;;;;;;;20.52;10.38;;;;;;;8.87;70.52;99185.06;3995946;31;15015759;-76
2020/12/10 08:19:21;;;;;;;18.23;7.10;;;;;;;8.87;70.52;99185.06;4456198;32;20112;-74
2020/12/10 08:21:51;;;;;;;22.40;7.53;;;;;;;8.48;71.42;99190.75;4452417;32;20107;-74
2020/12/10 08:24:38;;;;;;;19.83;6.12;;;;;;;8.48;70.79;99190.75;4452445;32;20465;-77
2020/12/10 08:27:05;;;;;;;18.05;7.00;;;;;;;8.55;70.72;99190.44;4456318;32;20136;-76
2020/12/10 08:29:32;;;;;;;19.20;6.53;;;;;;;8.43;70.65;99186.50;4455783;32;20081;-77
2020/12/10 08:34:42;;;;;;;26.90;6.43;;;;;;;8.85;70.12;99186.78;3984518;32;15023372;-77
2020/12/10 08:37:11;;;;;;;14.65;6.10;;;;;;;8.85;70.12;99186.78;4437745;32;20083;-75
2020/12/10 08:39:39;;;;;;;21.95;6.18;;;;;;;8.43;71.12;99182.94;4435306;32;20084;-76
2020/12/10 08:42:06;;;;;;;17.35;5.70;;;;;;;8.40;71.15;99195.84;4438139;32;20645;-76
2020/12/10 08:44:50;;;;;;;15.63;5.90;;;;;;;8.17;71.89;99190.75;4435881;32;20033;-76
2020/12/10 08:47:30;;;;;;;23.27;5.47;;;;;;;8.20;71.63;99198.22;4432532;32;20100;-75
2020/12/10 08:50:23;;;;;;;18.75;6.07;;;;;;;8.04;72.27;99202.03;4431249;32;20069;-76
2020/12/10 08:53:08;;;;;;;16.83;6.50;;;;;;;8.05;72.80;99188.81;4426315;32;20022;-75
2020/12/10 08:55:48;;;;;;;20.07;6.57;;;;;;;8.11;72.82;99187.72;4420270;32;20069;-76
2020/12/10 08:58:18;;;;;;;17.90;7.18;;;;;;;8.29;72.71;99189.91;4418336;32;20212;-75
2020/12/10 09:00:44;;;;;;;26.23;7.80;;;;;;;8.27;72.00;99189.56;4420045;32;20065;-75
2020/12/10 09:03:10;;;;;;;21.65;7.78;;;;;;;8.33;72.34;99175.72;4415451;32;20022;-75
2020/12/10 09:05:36;;;;;;;17.83;5.82;;;;;;;8.26;72.00;99168.41;4415890;32;20095;-75
2020/12/10 09:08:04;;;;;;;17.65;6.20;;;;;;;8.26;72.23;99168.41;4420352;32;20128;-75
2020/12/10 09:10:30;;;;;;;20.00;6.40;;;;;;;8.36;72.36;99152.38;4417971;32;20068;-75
2020/12/10 09:13:00;;;;;;;17.70;6.00;;;;;;;8.26;72.89;99156.41;4418693;32;20091;-75
2020/12/10 09:15:27;;;;;;;26.85;7.97;;;;;;;8.44;72.24;99159.28;4413477;32;20082;-76
2020/12/10 09:17:54;;;;;;;24.63;6.40;;;;;;;8.57;72.36;99169.13;4415998;32;20116;-75
2020/12/10 09:20:22;;;;;;;21.05;7.60;;;;;;;8.65;71.48;99156.38;4421441;32;20038;-75
2020/12/10 09:22:48;;;;;;;20.17;6.47;;;;;;;8.72;71.64;99161.69;4418450;32;20101;-75
2020/12/10 09:25:13;;;;;;;18.23;5.87;;;;;;;8.72;71.46;99153.28;4424742;32;20079;-75
2020/12/10 09:27:39;;;;;;;15.32;5.80;;;;;;;8.76;72.13;99153.13;4417923;32;20038;-76
2020/12/10 09:30:07;;;;;;;28.83;6.70;;;;;;;8.84;71.42;99160.00;4416897;32;20081;-75
2020/12/10 09:32:36;;;;;;;27.77;6.18;;;;;;;8.79;71.50;99155.78;4416824;32;20120;-75
2020/12/10 09:35:07;;;;;;;18.45;6.22;;;;;;;8.75;72.28;99146.75;4418282;32;20073;-75
2020/12/10 09:37:35;;;;;;;23.20;7.05;;;;;;;8.77;72.44;99143.47;4416803;32;20030;-76
2020/12/10 09:40:01;;;;;;;17.80;6.03;;;;;;;8.78;72.05;99136.62;4414709;32;20794;-76
2020/12/10 09:42:28;;;;;;;20.37;6.10;;;;;;;8.79;72.22;99144.56;4422667;32;20064;-75
2020/12/10 09:44:53;;;;;;;20.02;6.75;;;;;;;8.65;72.66;99145.16;4412926;32;20057;-75
2020/12/10 09:47:19;;;;;;;20.92;6.60;;;;;;;8.66;72.90;99137.53;4410576;32;20068;-75
2020/12/10 09:49:53;;;;;;;20.65;6.65;;;;;;;8.57;72.95;99140.31;4404943;32;20067;-77
2020/12/10 09:52:20;;;;;;;19.48;6.53;;;;;;;8.64;73.52;99137.19;4409905;32;20656;-75
2020/12/10 09:57:30;;;;;;;20.00;6.43;;;;;;;8.78;73.58;99143.00;3994898;31;15018132;-76
2020/12/10 10:00:03;;;;;;;24.08;6.82;;;;;;;8.78;73.58;99143.00;4439114;32;20112;-75
2020/12/10 10:02:29;;;;;;;24.12;6.85;;;;;;;8.61;74.11;99140.94;4455597;32;20390;-75
2020/12/10 10:04:54;;;;;;;20.73;6.57;;;;;;;8.20;75.54;99142.19;4455911;32;20068;-75
2020/12/10 10:07:21;;;;;;;18.37;6.82;;;;;;;8.48;74.73;99141.06;4443027;32;20161;-74
2020/12/10 10:09:48;;;;;;;21.30;7.12;;;;;;;8.63;74.40;99146.87;4455937;32;20080;-75
2020/12/10 10:12:14;;;;;;;18.65;6.30;;;;;;;8.63;74.13;99141.25;4456623;32;20037;-74
2020/12/10 10:14:41;;;;;;;25.25;7.18;;;;;;;8.78;74.15;99140.22;4454306;32;20091;-75
2020/12/10 10:17:08;;;;;;;20.17;6.75;;;;;;;8.89;73.84;99143.31;4457938;32;20084;-73
2020/12/10 10:19:38;;;;;;;22.25;7.22;;;;;;;9.06;73.24;99146.63;4455242;32;20076;-75
2020/12/10 10:22:04;;;;;;;22.67;7.82;;;;;;;8.96;73.49;99143.00;4455075;32;20071;-73
2020/12/10 10:24:34;;;;;;;17.45;6.78;;;;;;;9.18;72.47;99152.06;4455067;32;20033;-75
2020/12/10 10:27:01;;;;;;;24.73;8.70;;;;;;;9.23;72.53;99156.28;4456091;32;20080;-75
2020/12/10 10:29:28;;;;;;;27.42;7.60;;;;;;;8.95;73.42;99151.91;4457545;32;20454;-75
2020/12/10 10:32:04;;;;;;;16.52;7.32;;;;;;;9.04;73.17;99149.91;4455704;32;20426;-75
2020/12/10 10:34:34;;;;;;;20.37;7.32;;;;;;;9.18;73.41;99148.50;4456695;32;20096;-73
2020/12/10 10:37:08;;;;;;;18.95;6.97;;;;;;;9.27;72.71;99154.87;4455845;32;20115;-76
2020/12/10 10:39:35;;;;;;;26.75;7.45;;;;;;;9.33;72.53;99160.66;4456050;32;20690;-73
2020/12/10 10:42:01;;;;;;;23.70;7.00;;;;;;;9.47;72.13;99158.00;4454962;32;20049;-75
2020/12/10 10:44:27;;;;;;;30.58;7.18;;;;;;;9.21;72.68;99150.38;4456358;32;20100;-74
2020/12/10 10:46:58;;;;;;;15.70;7.68;;;;;;;9.05;73.72;99145.84;4455234;32;20509;-76
2020/12/10 10:49:23;;;;;;;17.92;7.70;;;;;;;9.21;72.77;99153.19;4455279;32;20168;-73
2020/12/10 10:51:49;;;;;;;21.77;8.45;;;;;;;9.39;72.10;99139.91;4454134;32;20360;-75
2020/12/10 10:54:15;;;;;;;19.50;7.53;;;;;;;9.59;71.93;99142.22;4455297;32;20594;-74
2020/12/10 10:56:41;;;;;;;21.90;7.65;;;;;;;9.70;71.70;99128.50;4450593;32;20045;-75
2020/12/10 10:59:17;;;;;;;21.75;7.18;;;;;;;9.84;70.68;99131.41;4449531;32;20045;-75
2020/12/10 11:01:43;;;;;;;15.63;6.75;;;;;;;10.08;70.23;99128.72;4449371;32;20538;-77
2020/12/10 11:04:18;;;;;;;21.25;7.18;;;;;;;9.79;70.35;99126.41;4452283;32;20426;-74
2020/12/10 11:06:43;;;;;;;22.77;7.45;;;;;;;9.94;70.03;99118.88;4447620;32;20041;-74
2020/12/10 11:09:10;;;;;;;21.02;7.15;;;;;;;9.90;70.36;99114.69;4440051;32;20018;-75
2020/12/10 11:11:36;;;;;;;26.52;8.10;;;;;;;9.90;70.17;99118.28;4440728;32;20132;-75
2020/12/10 11:14:02;;;;;;;20.25;7.25;;;;;;;9.91;70.62;99108.59;4443750;32;20089;-73
2020/12/10 11:16:27;;;;;;;18.98;6.87;;;;;;;10.18;69.90;99107.75;4439134;32;20116;-74
2020/12/10 11:18:53;;;;;;;18.75;7.28;;;;;;;9.90;70.00;99098.62;4439975;32;20069;-73
2020/12/10 11:21:27;;;;;;;20.20;7.47;;;;;;;9.95;70.25;99100.00;4447523;32;20095;-74
2020/12/10 11:23:53;;;;;;;15.32;6.93;;;;;;;10.09;70.06;99099.34;4440022;32;20088;-75
2020/12/10 11:26:39;;;;;;;22.45;7.18;;;;;;;10.13;69.88;99094.34;4441387;32;20115;-76
2020/12/10 11:29:04;;;;;;;;;;;;;;;10.29;69.26;99081.94;4437618;32;20046;-73
2020/12/10 11:31:30;;;;;;;20.40;7.65;;;;;;;10.16;69.34;99084.19;4427918;32;19987;-74
2020/12/10 11:33:57;;;;;;;21.98;7.78;;;;;;;10.16;69.37;99084.19;4442593;32;20112;-73
2020/12/10 11:36:23;;;;;;;23.23;7.90;;;;;;;10.17;69.60;99096.97;4425239;32;20104;-74
2020/12/10 11:38:49;;;;;;;23.25;8.32;;;;;;;9.89;70.40;99107.53;4437595;32;20072;-75
2020/12/10 11:41:42;;;;;;;26.70;8.15;;;;;;;9.99;69.74;99107.03;4426715;32;20030;-74
2020/12/10 11:44:20;;;;;;;20.25;8.68;;;;;;;10.03;70.01;99099.19;4427477;32;20106;-74
2020/12/10 11:46:47;;;;;;;23.98;9.38;;;;;;;9.96;70.81;99110.00;4426916;32;20045;-75
2020/12/10 11:49:13;;;;;;;23.77;10.27;;;;;;;9.49;72.31;99104.97;4438890;32;20070;-76
2020/12/10 11:51:39;;;;;;;23.67;8.25;;;;;;;9.67;71.00;99098.53;4440308;32;20021;-73
2020/12/10 11:54:10;;;;;;;19.15;6.80;;;;;;;9.55;71.63;99103.06;4438817;32;20033;-76
2020/12/10 11:56:54;;;;;;;21.00;7.28;;;;;;;9.71;71.43;99093.53;4439802;32;20077;-76
2020/12/10 11:59:22;;;;;;;19.70;8.10;;;;;;;9.69;71.08;99088.38;4435015;32;20061;-75
2020/12/10 12:01:48;;;;;;;19.75;7.80;;;;;;;9.82;70.61;99094.56;4439069;32;20064;-77
2020/12/10 12:04:14;;;;;;;16.37;7.20;;;;;;;9.92;70.13;99090.47;4442372;32;20029;-74
2020/12/10 12:06:40;;;;;;;18.73;7.57;;;;;;;10.07;70.06;99091.38;4440381;32;20134;-75
2020/12/10 12:09:06;;;;;;;24.00;7.62;;;;;;;10.17;68.98;99080.91;4439830;32;20177;-75
2020/12/10 12:11:33;;;;;;;22.48;8.30;;;;;;;10.09;69.74;99071.25;4439176;32;20091;-75
2020/12/10 12:13:59;;;;;;;20.90;7.70;;;;;;;10.26;69.52;99075.22;4437603;32;20064;-74
2020/12/10 12:16:25;;;;;;;18.62;7.90;;;;;;;10.43;68.49;99081.25;4437430;32;20021;-74
2020/12/10 12:18:51;;;;;;;18.27;8.27;;;;;;;10.07;68.87;99071.72;4422171;32;20055;-73
2020/12/10 12:21:30;;;;;;;22.58;8.43;;;;;;;10.32;68.64;99083.78;4439789;32;20073;-75
2020/12/10 12:23:57;;;;;;;22.90;8.98;;;;;;;10.00;69.53;99074.84;4439287;32;20099;-75
2020/12/10 12:26:52;;;;;;;24.02;8.77;;;;;;;9.80;70.46;99071.81;4440631;32;20076;-74